createdAt,value
2023-03-29T00:02:13.347Z,100049.19
2023-03-29T00:04:42.849Z,100053.47
2023-03-29T00:07:10.887Z,100049.16
2023-03-29T00:09:42.002Z,100050.87
2023-03-29T00:12:12.115Z,100041.41
2023-03-29T00:14:42.099Z,100037.06
2023-03-29T00:17:10.315Z,100044.00
2023-03-29T00:19:40.075Z,100038.78
2023-03-29T00:22:12.512Z,100042.22
2023-03-29T00:24:42.493Z,100042.19
2023-03-29T00:27:11.323Z,100043.94
2023-03-29T00:29:40.402Z,100042.19
2023-03-29T00:32:09.914Z,100031.81
2023-03-29T00:34:38.131Z,100039.56
2023-03-29T00:37:10.301Z,100039.56
2023-03-29T00:39:43.637Z,100033.53
2023-03-29T00:42:15.428Z,100025.75
2023-03-29T00:45:08.351Z,100031.88
2023-03-29T00:47:50.845Z,100024.94
2023-03-29T00:50:31.737Z,100030.03
2023-03-29T00:53:28.725Z,100041.19
2023-03-29T00:56:12.060Z,100036.00
2023-03-29T00:59:05.115Z,100036.91
2023-03-29T01:01:45.579Z,100031.75
2023-03-29T01:04:33.154Z,100029.94
2023-03-29T01:07:18.299Z,100023.87
2023-03-29T01:09:55.237Z,100012.56
2023-03-29T01:12:35.240Z,100013.37
2023-03-29T01:15:18.179Z,100004.69
2023-03-29T01:17:55.612Z,100002.87
2023-03-29T01:20:51.293Z,100003.75
2023-03-29T01:24:13.359Z,99999.41
2023-03-29T01:27:16.257Z,100001.12
2023-03-29T01:29:56.065Z,99993.34
2023-03-29T01:32:28.127Z,99995.06
2023-03-29T01:35:04.275Z,99997.62
2023-03-29T01:37:37.874Z,100005.34
2023-03-29T01:40:07.335Z,99995.88
2023-03-29T01:42:56.304Z,99993.31
2023-03-29T01:45:39.666Z,100001.91
2023-03-29T01:48:17.589Z,99999.28
2023-03-29T01:50:57.344Z,99996.00
2023-03-29T01:53:32.153Z,99991.84
2023-03-29T01:56:08.115Z,99985.75
2023-03-29T01:58:45.155Z,99999.47
2023-03-29T02:01:24.146Z,100001.12
2023-03-29T02:03:59.108Z,100000.22
2023-03-29T02:06:31.625Z,100003.66
2023-03-29T02:09:05.093Z,100006.19
2023-03-29T02:11:36.520Z,99991.59
2023-03-29T02:14:06.860Z,99989.16
2023-03-29T02:16:40.955Z,99989.12
2023-03-29T02:19:11.702Z,99999.34
2023-03-29T02:21:46.298Z,99994.19
2023-03-29T02:24:21.416Z,100005.38
2023-03-29T02:26:51.769Z,99995.06
2023-03-29T02:29:22.202Z,99995.09
2023-03-29T02:32:02.534Z,99992.47
2023-03-29T02:34:41.732Z,99989.81
2023-03-29T02:37:17.965Z,99996.66
2023-03-29T02:39:52.588Z,100000.91
2023-03-29T02:42:28.565Z,100010.41
2023-03-29T02:45:02.083Z,100016.41
2023-03-29T02:47:38.592Z,100011.22
2023-03-29T02:50:14.809Z,100017.34
2023-03-29T02:52:53.164Z,100013.81
2023-03-29T02:55:31.380Z,100017.28
2023-03-29T02:58:07.105Z,100009.59
2023-03-29T03:00:41.311Z,100014.69
2023-03-29T03:03:11.441Z,100012.91
2023-03-29T03:05:43.787Z,100022.44
2023-03-29T03:08:14.124Z,100022.38
2023-03-29T03:10:48.245Z,100026.66
2023-03-29T03:13:18.321Z,100030.94
2023-03-29T03:15:49.305Z,100027.44
2023-03-29T03:18:19.101Z,100025.69
2023-03-29T03:21:00.431Z,100023.91
2023-03-29T03:23:30.631Z,100030.69
2023-03-29T03:26:04.037Z,100029.78
2023-03-29T03:28:34.303Z,100027.97
2023-03-29T03:31:10.376Z,100029.69
2023-03-29T03:33:46.146Z,100031.41
2023-03-29T03:36:17.232Z,100032.22
2023-03-29T03:38:48.987Z,100037.44
2023-03-29T03:41:28.936Z,100041.75
2023-03-29T03:44:00.894Z,100041.72
2023-03-29T03:46:41.066Z,100042.53
2023-03-29T03:49:13.967Z,100046.00
2023-03-29T03:51:46.152Z,100048.53
2023-03-29T03:54:15.837Z,100055.50
2023-03-29T03:56:49.918Z,100049.44
2023-03-29T03:59:19.419Z,100052.16
2023-03-29T04:01:52.833Z,100050.53
2023-03-29T04:04:25.705Z,100053.97
2023-03-29T04:06:54.577Z,100053.09
2023-03-29T04:09:33.156Z,100053.22
2023-03-29T04:12:06.745Z,100049.03
2023-03-29T04:14:36.195Z,100045.62
2023-03-29T04:17:06.229Z,100048.09
2023-03-29T04:19:37.689Z,100039.44
2023-03-29T04:22:08.532Z,100044.63
2023-03-29T04:24:39.859Z,100038.59
2023-03-29T04:27:11.950Z,100042.09
2023-03-29T04:29:44.923Z,100046.47
2023-03-29T04:32:17.176Z,100056.06
2023-03-29T04:34:49.162Z,100057.87
2023-03-29T04:37:22.355Z,100060.56
2023-03-29T04:39:53.369Z,100058.09
2023-03-29T04:42:24.262Z,100059.09
2023-03-29T04:44:54.141Z,100053.19
2023-03-29T04:47:25.182Z,100061.88
2023-03-29T04:49:58.176Z,100057.56
2023-03-29T04:52:33.169Z,100063.72
2023-03-29T04:55:02.735Z,100063.78
2023-03-29T04:57:31.729Z,100062.94
2023-03-29T04:59:59.029Z,100064.75
2023-03-29T05:02:32.402Z,100065.66
2023-03-29T05:05:00.175Z,100057.94
2023-03-29T05:07:27.975Z,100059.69
2023-03-29T05:09:55.500Z,100066.63
2023-03-29T05:12:22.894Z,100066.66
2023-03-29T05:14:52.028Z,100056.25
2023-03-29T05:17:21.682Z,100056.28
2023-03-29T05:19:49.375Z,100061.50
2023-03-29T05:22:21.647Z,100059.75
2023-03-29T05:24:49.998Z,100054.56
2023-03-29T05:27:17.583Z,100054.56
2023-03-29T05:29:51.587Z,100055.44
2023-03-29T05:32:27.450Z,100048.53
2023-03-29T05:35:11.223Z,100047.63
2023-03-29T05:37:52.833Z,100045.03
2023-03-29T05:40:30.603Z,100045.03
2023-03-29T05:43:03.286Z,100047.59
2023-03-29T05:45:30.529Z,100045.88
2023-03-29T05:47:58.296Z,100053.66
2023-03-29T05:50:26.467Z,100054.47
2023-03-29T05:52:56.162Z,100062.28
2023-03-29T05:55:25.189Z,100057.09
2023-03-29T05:57:56.682Z,100057.06
2023-03-29T06:00:25.218Z,100060.53
2023-03-29T06:03:03.727Z,100058.81
2023-03-29T06:05:40.393Z,100063.09
2023-03-29T06:08:08.942Z,100066.47
2023-03-29T06:10:38.048Z,100063.78
2023-03-29T06:13:07.108Z,100070.69
2023-03-29T06:15:36.210Z,100068.97
2023-03-29T06:18:06.111Z,100074.94
2023-03-29T06:20:34.218Z,100075.56
2023-03-29T06:23:04.248Z,100076.97
2023-03-29T06:25:32.186Z,100070.09
2023-03-29T06:27:59.522Z,100074.09
2023-03-29T06:30:29.166Z,100077.19
2023-03-29T06:32:59.518Z,100078.66
2023-03-29T06:35:28.309Z,100085.13
2023-03-29T06:37:57.860Z,100086.84
2023-03-29T06:40:26.143Z,100081.75
2023-03-29T06:43:01.262Z,100082.53
2023-03-29T06:45:35.715Z,100080.94
2023-03-29T06:48:06.026Z,100072.38
2023-03-29T06:50:37.691Z,100081.44
2023-03-29T06:53:07.821Z,100074.94
2023-03-29T06:55:36.341Z,100079.91
2023-03-29T06:58:09.292Z,100084.19
2023-03-29T07:00:39.675Z,100088.03
2023-03-29T07:03:14.454Z,100095.06
2023-03-29T07:05:45.256Z,100097.38
2023-03-29T07:08:15.449Z,100103.41
2023-03-29T07:10:48.980Z,100102.25
2023-03-29T07:13:19.314Z,100110.06
2023-03-29T07:15:50.100Z,100108.50
2023-03-29T07:18:18.470Z,100119.09
2023-03-29T07:20:48.440Z,100126.78
2023-03-29T07:23:18.053Z,100118.00
2023-03-29T07:25:46.449Z,100124.75
2023-03-29T07:28:13.795Z,100125.66
2023-03-29T07:30:41.451Z,100133.03
2023-03-29T07:33:14.693Z,100130.97
2023-03-29T07:35:45.129Z,100122.25
2023-03-29T07:38:13.195Z,100124.41
2023-03-29T07:40:41.975Z,100119.97
2023-03-29T07:43:13.783Z,100120.34
2023-03-29T07:45:42.425Z,100126.25
2023-03-29T07:48:10.056Z,100118.91
2023-03-29T07:50:43.219Z,100128.50
2023-03-29T07:53:12.775Z,100128.81
2023-03-29T07:55:47.822Z,100125.37
2023-03-29T07:58:17.629Z,100122.69
2023-03-29T08:00:48.865Z,100115.72
2023-03-29T08:03:19.548Z,100123.28
2023-03-29T08:05:47.472Z,100133.25
2023-03-29T08:08:14.980Z,100128.47
2023-03-29T08:10:44.772Z,100120.19
2023-03-29T08:13:13.876Z,100117.84
2023-03-29T08:15:46.268Z,100118.16
2023-03-29T08:18:18.250Z,100118.28
2023-03-29T08:20:45.813Z,100123.91
2023-03-29T08:23:12.990Z,100119.44
2023-03-29T08:25:43.307Z,100119.50
2023-03-29T08:28:10.699Z,100114.72
2023-03-29T08:30:39.953Z,100118.28
2023-03-29T08:33:08.844Z,100110.56
2023-03-29T08:35:36.900Z,100110.09
2023-03-29T08:38:05.636Z,100102.16
2023-03-29T08:40:34.873Z,100108.53
2023-03-29T08:43:07.710Z,100102.88
2023-03-29T08:45:42.296Z,100105.44
2023-03-29T08:48:35.138Z,100101.94
2023-03-29T08:51:15.442Z,100102.03
2023-03-29T08:53:48.418Z,100099.94
2023-03-29T08:56:23.097Z,100093.06
2023-03-29T08:58:54.509Z,100083.06
2023-03-29T09:01:28.765Z,100088.06
2023-03-29T09:04:11.825Z,100082.22
2023-03-29T09:06:41.048Z,100078.78
2023-03-29T09:09:17.473Z,100077.97
2023-03-29T09:12:04.085Z,100081.75
2023-03-29T09:14:52.228Z,100077.63
2023-03-29T09:17:44.657Z,100073.38
2023-03-29T09:20:36.782Z,100074.47
2023-03-29T09:23:42.463Z,100078.13
2023-03-29T09:26:31.978Z,100072.28
2023-03-29T09:29:38.349Z,100069.16
2023-03-29T09:32:45.742Z,100069.28
2023-03-29T09:35:57.487Z,100070.87
2023-03-29T09:38:33.710Z,100062.88
2023-03-29T09:41:24.531Z,100062.22
2023-03-29T09:43:55.419Z,100055.78
2023-03-29T09:47:02.303Z,100056.00
2023-03-29T09:49:46.496Z,100056.34
2023-03-29T09:52:21.334Z,100057.41
2023-03-29T09:54:49.667Z,100050.94
2023-03-29T09:57:20.885Z,100050.31
2023-03-29T09:59:53.176Z,100052.66
2023-03-29T10:02:22.136Z,100050.41
2023-03-29T10:05:04.201Z,100040.22
2023-03-29T10:14:19.477Z,100032.38
2023-03-29T10:16:47.825Z,100024.91
2023-03-29T10:19:21.926Z,100027.16
2023-03-29T10:21:52.968Z,100025.41
2023-03-29T10:24:25.874Z,100026.19
2023-03-29T10:27:01.568Z,100025.38
2023-03-29T10:29:36.838Z,100026.72
2023-03-29T10:32:35.874Z,100017.25
2023-03-29T10:35:13.566Z,100013.97
2023-03-29T10:37:49.182Z,100015.84
2023-03-29T10:40:35.143Z,100012.22
2023-03-29T10:43:24.770Z,100011.41
2023-03-29T10:46:07.650Z,100006.50
2023-03-29T10:48:37.706Z,100005.75
2023-03-29T10:51:06.416Z,100005.25
2023-03-29T10:53:36.597Z,99991.41
2023-03-29T10:56:08.133Z,99995.75
2023-03-29T10:58:44.602Z,99994.47
2023-03-29T11:01:26.621Z,100002.87
2023-03-29T11:04:00.161Z,99999.28
2023-03-29T11:06:41.032Z,99995.97
2023-03-29T11:09:52.266Z,99988.31
2023-03-29T11:12:52.271Z,99981.75
2023-03-29T11:16:17.978Z,99975.25
2023-03-29T11:19:01.151Z,99975.53
2023-03-29T11:21:38.353Z,99974.28
2023-03-29T11:24:25.649Z,99979.56
2023-03-29T11:27:08.084Z,99977.38
2023-03-29T11:30:13.307Z,99968.94
2023-03-29T11:32:55.993Z,99968.69
2023-03-29T11:35:45.597Z,99964.97
2023-03-29T11:39:11.400Z,99959.31
2023-03-29T11:41:43.465Z,99954.13
2023-03-29T11:44:19.622Z,99948.06
2023-03-29T11:46:50.639Z,99953.16
2023-03-29T11:49:30.102Z,99950.38
2023-03-29T11:52:11.696Z,99947.50
2023-03-29T11:55:10.333Z,99942.34
2023-03-29T11:57:53.974Z,99939.09
2023-03-29T12:00:27.614Z,99940.72
2023-03-29T12:02:55.303Z,99925.47
2023-03-29T12:05:29.283Z,99925.16
2023-03-29T12:08:01.097Z,99919.56
2023-03-29T12:10:39.346Z,99920.72
2023-03-29T12:13:17.109Z,99917.81
2023-03-29T12:15:52.794Z,99909.44
2023-03-29T12:18:27.308Z,99917.00
2023-03-29T12:21:01.448Z,99893.78
2023-03-29T12:23:34.719Z,99896.28
2023-03-29T12:26:07.562Z,99894.63
2023-03-29T12:29:06.956Z,99900.13
2023-03-29T12:31:49.286Z,99898.34
2023-03-29T12:34:35.330Z,99881.09
2023-03-29T12:37:17.658Z,99896.63
2023-03-29T12:39:51.592Z,99897.53
2023-03-29T12:42:24.432Z,99886.59
2023-03-29T12:44:59.051Z,99882.22
2023-03-29T12:47:33.774Z,99884.72
2023-03-29T12:50:02.496Z,99877.94
2023-03-29T12:52:37.081Z,99884.78
2023-03-29T12:55:49.253Z,99873.97
2023-03-29T12:58:39.851Z,99870.50
2023-03-29T13:01:25.673Z,99870.87
2023-03-29T13:04:11.407Z,99861.44
2023-03-29T13:06:50.146Z,99864.97
2023-03-29T13:09:39.008Z,99863.03
2023-03-29T13:12:45.251Z,99860.59
2023-03-29T13:15:19.186Z,99852.12
2023-03-29T13:18:04.620Z,99850.44
2023-03-29T13:20:47.243Z,99847.78
2023-03-29T13:23:30.101Z,99851.63
2023-03-29T13:26:32.214Z,99831.63
2023-03-29T13:29:14.629Z,99836.94
2023-03-29T13:32:13.369Z,99835.22
2023-03-29T13:35:02.773Z,99841.94
2023-03-29T13:37:56.488Z,99829.03
2023-03-29T13:40:58.422Z,99833.25
2023-03-29T13:43:39.620Z,99829.84
2023-03-29T13:46:29.832Z,99827.03
2023-03-29T13:49:17.595Z,99822.59
2023-03-29T13:52:39.550Z,99823.59
2023-03-29T13:55:54.698Z,99814.88
2023-03-29T13:58:52.010Z,99820.88
2023-03-29T14:01:42.405Z,99821.72
2023-03-29T14:04:27.066Z,99818.87
2023-03-29T14:07:01.529Z,99813.72
2023-03-29T14:09:43.657Z,99808.56
2023-03-29T14:12:15.856Z,99808.97
2023-03-29T14:14:58.848Z,99816.97
2023-03-29T14:17:33.341Z,99808.59
2023-03-29T14:20:08.927Z,99805.53
2023-03-29T14:22:37.945Z,99807.78
2023-03-29T14:25:19.699Z,99802.16
2023-03-29T14:27:48.734Z,99800.00
2023-03-29T14:30:31.742Z,99798.19
2023-03-29T14:33:01.338Z,99798.50
2023-03-29T14:35:34.158Z,99794.25
2023-03-29T14:38:06.825Z,99802.09
2023-03-29T14:40:42.207Z,99793.13
2023-03-29T14:43:22.512Z,99793.13
2023-03-29T14:45:53.441Z,99792.28
2023-03-29T14:48:25.850Z,99789.44
2023-03-29T14:50:57.674Z,99780.19
2023-03-29T14:53:34.759Z,99777.47
2023-03-29T14:56:18.579Z,99783.69
2023-03-29T14:58:51.695Z,99783.69
2023-03-29T15:01:27.967Z,99782.69
2023-03-29T15:04:08.501Z,99779.97
2023-03-29T15:06:41.762Z,99783.09
2023-03-29T15:09:18.596Z,99770.63
2023-03-29T15:12:00.232Z,99766.34
2023-03-29T15:14:34.881Z,99769.22
2023-03-29T15:17:31.282Z,99771.56
2023-03-29T15:20:25.442Z,99767.84
2023-03-29T15:23:20.729Z,99758.59
2023-03-29T15:26:08.608Z,99763.75
2023-03-29T15:29:10.418Z,99763.13
2023-03-29T15:31:45.304Z,99757.53
2023-03-29T15:34:26.639Z,99753.84
2023-03-29T15:37:06.634Z,99755.34
2023-03-29T15:39:41.479Z,99759.19
2023-03-29T15:42:15.596Z,99755.84
2023-03-29T15:44:50.056Z,99744.59
2023-03-29T15:47:24.250Z,99742.94
2023-03-29T15:49:57.283Z,99731.94
2023-03-29T15:52:28.466Z,99735.28
2023-03-29T15:55:13.475Z,99733.72
2023-03-29T15:57:55.985Z,99741.22
2023-03-29T16:00:33.376Z,99731.81
2023-03-29T16:03:17.334Z,99741.34
2023-03-29T16:05:51.214Z,99736.66
2023-03-29T16:08:31.450Z,99729.47
2023-03-29T16:11:04.088Z,99730.41
2023-03-29T16:13:36.063Z,99729.66
2023-03-29T16:16:20.186Z,99732.59
2023-03-29T16:18:50.245Z,99733.00
2023-03-29T16:21:29.236Z,99729.78
2023-03-29T16:24:00.232Z,99723.78
2023-03-29T16:26:31.751Z,99723.84
2023-03-29T16:29:05.945Z,99730.19
2023-03-29T16:31:44.188Z,99726.63
2023-03-29T16:34:26.831Z,99723.88
2023-03-29T16:36:56.683Z,99719.03
2023-03-29T16:39:29.786Z,99719.97
2023-03-29T16:42:03.572Z,99728.84
2023-03-29T16:44:36.207Z,99724.38
2023-03-29T16:47:10.814Z,99729.38
2023-03-29T16:49:46.125Z,99725.00
2023-03-29T16:52:22.233Z,99731.25
2023-03-29T16:55:01.049Z,99739.56
2023-03-29T16:57:38.424Z,99733.81
2023-03-29T17:00:22.254Z,99730.56
2023-03-29T17:03:01.905Z,99728.06
2023-03-29T17:05:41.836Z,99724.75
2023-03-29T17:08:16.411Z,99737.59
2023-03-29T17:11:01.106Z,99730.06
2023-03-29T17:13:34.340Z,99741.31
2023-03-29T17:16:08.689Z,99733.87
2023-03-29T17:18:47.993Z,99739.19
2023-03-29T17:21:18.303Z,99729.00
2023-03-29T17:23:58.379Z,99741.97
2023-03-29T17:26:29.242Z,99739.41
2023-03-29T17:29:02.769Z,99741.13
2023-03-29T17:31:38.431Z,99737.84
2023-03-29T17:34:17.259Z,99743.38
2023-03-29T17:36:55.291Z,99750.22
2023-03-29T17:39:31.253Z,99747.94
2023-03-29T17:42:09.674Z,99751.66
2023-03-29T17:44:43.928Z,99750.94
2023-03-29T17:47:24.310Z,99742.41
2023-03-29T17:50:01.344Z,99735.13
2023-03-29T17:52:38.044Z,99738.72
2023-03-29T17:55:21.088Z,99744.94
2023-03-29T17:57:55.401Z,99745.97
2023-03-29T18:00:30.985Z,99755.09
2023-03-29T18:03:07.285Z,99751.47
2023-03-29T18:05:45.868Z,99753.84
2023-03-29T18:08:24.158Z,99759.63
2023-03-29T18:11:07.071Z,99762.34
2023-03-29T18:13:47.868Z,99764.13
2023-03-29T18:16:23.171Z,99769.84
2023-03-29T18:18:56.210Z,99771.03
2023-03-29T18:21:30.563Z,99776.22
2023-03-29T18:24:01.248Z,99778.16
2023-03-29T18:26:38.669Z,99777.16
2023-03-29T18:29:17.683Z,99780.56
2023-03-29T18:31:53.680Z,99776.19
2023-03-29T18:34:40.154Z,99778.81
2023-03-29T18:37:14.591Z,99777.19
2023-03-29T18:39:53.521Z,99776.22
2023-03-29T18:42:27.644Z,99777.34
2023-03-29T18:45:00.919Z,99781.03
2023-03-29T18:47:31.792Z,99780.44
2023-03-29T18:50:07.736Z,99775.84
2023-03-29T18:52:44.759Z,99774.22
2023-03-29T18:55:14.202Z,99780.44
2023-03-29T18:57:56.128Z,99777.66
2023-03-29T19:00:25.235Z,99778.75
2023-03-29T19:02:59.596Z,99778.97
2023-03-29T19:05:48.982Z,99776.59
2023-03-29T19:08:33.222Z,99779.91
2023-03-29T19:11:09.751Z,99788.75
2023-03-29T19:13:43.245Z,99788.03
2023-03-29T19:16:16.841Z,99791.16
2023-03-29T19:18:50.008Z,99787.94
2023-03-29T19:21:35.980Z,99785.38
2023-03-29T19:24:09.563Z,99775.94
2023-03-29T19:26:42.405Z,99785.56
2023-03-29T19:29:12.585Z,99782.63
2023-03-29T19:31:51.269Z,99783.59
2023-03-29T19:34:25.271Z,99781.06
2023-03-29T19:37:04.195Z,99785.47
2023-03-29T19:39:40.233Z,99792.47
2023-03-29T19:42:14.005Z,99786.31
2023-03-29T19:44:50.254Z,99778.34
2023-03-29T19:47:24.824Z,99786.16
2023-03-29T19:50:04.430Z,99779.81
2023-03-29T19:52:37.847Z,99778.09
2023-03-29T19:55:16.750Z,99764.91
2023-03-29T19:57:52.618Z,99774.53
2023-03-29T20:00:27.757Z,99764.78
2023-03-29T20:03:06.644Z,99763.06
2023-03-29T20:05:42.575Z,99769.19
2023-03-29T20:08:19.276Z,99768.25
2023-03-29T20:11:02.158Z,99763.94
2023-03-29T20:13:42.526Z,99755.06
2023-03-29T20:16:24.146Z,99762.44
2023-03-29T20:18:54.867Z,99759.78
2023-03-29T20:21:38.749Z,99761.69
2023-03-29T20:24:12.264Z,99762.00
2023-03-29T20:26:43.175Z,99759.47
2023-03-29T20:29:17.857Z,99757.03
2023-03-29T20:31:55.391Z,99759.88
2023-03-29T20:34:35.379Z,99751.28
2023-03-29T20:37:09.706Z,99750.16
2023-03-29T20:39:53.474Z,99749.63
2023-03-29T20:42:28.728Z,99752.34
2023-03-29T20:45:07.877Z,99750.19
2023-03-29T20:47:44.175Z,99756.53
2023-03-29T20:50:33.880Z,99748.84
2023-03-29T20:53:13.138Z,99748.84
2023-03-29T20:55:51.055Z,99747.41
2023-03-29T20:58:33.045Z,99746.62
2023-03-29T21:01:07.793Z,99739.06
2023-03-29T21:03:42.896Z,99741.72
2023-03-29T21:06:20.603Z,99745.34
2023-03-29T21:09:00.735Z,99736.75
2023-03-29T21:11:33.317Z,99740.34
2023-03-29T21:14:06.898Z,99731.56
2023-03-29T21:16:43.683Z,99740.50
2023-03-29T21:19:18.925Z,99739.75
2023-03-29T21:21:52.677Z,99739.06
2023-03-29T21:24:31.839Z,99734.00
2023-03-29T21:27:02.849Z,99736.78
2023-03-29T21:29:36.478Z,99721.34
2023-03-29T21:32:11.316Z,99733.75
2023-03-29T21:34:45.223Z,99735.84
2023-03-29T21:37:24.338Z,99726.37
2023-03-29T21:40:05.026Z,99727.63
2023-03-29T21:42:36.624Z,99721.78
2023-03-29T21:45:10.064Z,99729.91
2023-03-29T21:47:45.450Z,99728.28
2023-03-29T21:50:23.073Z,99732.81
2023-03-29T21:53:01.902Z,99732.81
2023-03-29T21:55:43.100Z,99735.03
2023-03-29T21:58:14.730Z,99736.75
2023-03-29T22:00:50.028Z,99732.44
2023-03-29T22:03:25.324Z,99732.66
2023-03-29T22:06:04.321Z,99723.19
2023-03-29T22:08:39.065Z,99724.19
2023-03-29T22:11:17.857Z,99721.56
2023-03-29T22:13:57.124Z,99722.56
2023-03-29T22:16:37.149Z,99732.41
2023-03-29T22:19:12.339Z,99734.97
2023-03-29T22:21:48.083Z,99739.34
2023-03-29T22:24:29.021Z,99741.03
2023-03-29T22:27:03.326Z,99732.91
2023-03-29T22:29:40.444Z,99738.81
2023-03-29T22:32:17.435Z,99740.69
2023-03-29T22:34:55.601Z,99737.19
2023-03-29T22:37:29.529Z,99730.34
2023-03-29T22:39:59.133Z,99735.59
2023-03-29T22:42:34.259Z,99730.34
2023-03-29T22:45:08.702Z,99731.25
2023-03-29T22:47:48.534Z,99739.03
2023-03-29T22:50:28.333Z,99742.50
2023-03-29T22:53:04.663Z,99742.47
2023-03-29T22:55:36.318Z,99742.44
2023-03-29T22:58:10.440Z,99738.06
2023-03-29T23:00:39.157Z,99740.59
2023-03-29T23:03:12.497Z,99730.91
2023-03-29T23:06:01.137Z,99732.59
2023-03-29T23:08:35.839Z,99724.72
2023-03-29T23:11:08.302Z,99733.44
2023-03-29T23:13:53.191Z,99727.19
2023-03-29T23:16:26.848Z,99736.81
2023-03-29T23:19:00.804Z,99727.97
2023-03-29T23:21:32.672Z,99727.97
2023-03-29T23:24:05.845Z,99726.25
2023-03-29T23:26:39.657Z,99723.47
2023-03-29T23:29:11.316Z,99733.03
2023-03-29T23:31:50.417Z,99727.78
2023-03-29T23:34:22.604Z,99727.72
2023-03-29T23:36:56.366Z,99720.63
2023-03-29T23:39:29.734Z,99729.34
2023-03-29T23:42:03.682Z,99720.59
2023-03-29T23:44:41.776Z,99725.78
2023-03-29T23:47:16.392Z,99731.84
2023-03-29T23:49:49.333Z,99726.63
2023-03-29T23:52:25.330Z,99727.41
2023-03-29T23:55:10.185Z,99726.56
2023-03-29T23:57:52.297Z,99712.50
